createdAt,value
2018-11-25T00:01:29.517Z,16.44
2018-11-25T00:03:58.519Z,16.45
2018-11-25T00:06:26.695Z,16.44
2018-11-25T00:08:54.837Z,16.43
2018-11-25T00:11:24.475Z,16.43
2018-11-25T00:13:52.823Z,16.41
2018-11-25T00:16:21.510Z,16.40
2018-11-25T00:18:50.066Z,16.39
2018-11-25T00:21:18.320Z,16.36
2018-11-25T00:23:46.761Z,16.37
2018-11-25T00:26:15.763Z,16.36
2018-11-25T00:28:43.920Z,16.35
2018-11-25T00:31:12.199Z,16.34
2018-11-25T00:33:40.425Z,16.35
2018-11-25T00:36:08.931Z,16.35
2018-11-25T00:38:37.363Z,16.33
2018-11-25T00:41:06.168Z,16.32
2018-11-25T00:43:34.463Z,16.32
2018-11-25T00:46:03.298Z,16.32
2018-11-25T00:48:31.712Z,16.31
2018-11-25T00:51:00.196Z,16.30
2018-11-25T00:53:28.621Z,16.32
2018-11-25T00:55:57.037Z,16.29
2018-11-25T00:58:25.480Z,16.29
2018-11-25T01:00:53.984Z,16.28
2018-11-25T01:03:22.044Z,16.28
2018-11-25T01:05:50.132Z,16.25
2018-11-25T01:08:18.809Z,16.25
2018-11-25T01:10:46.887Z,16.24
2018-11-25T01:13:14.950Z,16.25
2018-11-25T01:15:43.053Z,16.23
2018-11-25T01:18:11.108Z,16.22
2018-11-25T01:20:39.312Z,16.22
2018-11-25T01:23:07.398Z,16.22
2018-11-25T01:25:35.699Z,16.20
2018-11-25T01:28:04.055Z,16.18
2018-11-25T01:30:32.972Z,16.17
2018-11-25T01:33:01.123Z,16.19
2018-11-25T01:35:29.632Z,16.17
2018-11-25T01:37:57.688Z,16.18
2018-11-25T01:40:25.743Z,16.17
2018-11-25T01:42:53.831Z,16.16
2018-11-25T01:45:22.378Z,16.15
2018-11-25T01:49:16.208Z,16.14
2018-11-25T01:52:07.392Z,16.13
2018-11-25T01:54:36.331Z,16.13
2018-11-25T01:57:04.868Z,16.11
2018-11-25T01:59:33.291Z,16.11
2018-11-25T02:02:01.600Z,16.12
2018-11-25T02:04:30.285Z,16.11
2018-11-25T02:06:58.635Z,16.08
2018-11-25T02:09:27.032Z,16.08
2018-11-25T02:11:55.443Z,16.06
2018-11-25T02:14:24.266Z,16.05
2018-11-25T02:16:52.737Z,16.05
2018-11-25T02:19:21.018Z,16.04
2018-11-25T02:21:49.719Z,16.04
2018-11-25T02:24:17.910Z,16.06
2018-11-25T02:26:46.345Z,16.06
2018-11-25T02:29:14.696Z,16.05
2018-11-25T02:31:43.093Z,16.05
2018-11-25T02:34:11.787Z,16.06
2018-11-25T02:36:40.033Z,16.06
2018-11-25T02:39:09.455Z,16.04
2018-11-25T02:41:38.460Z,16.05
2018-11-25T02:44:06.736Z,16.00
2018-11-25T02:46:35.184Z,16.06
2018-11-25T02:49:03.661Z,16.04
2018-11-25T02:51:32.011Z,16.03
2018-11-25T02:54:00.380Z,16.07
2018-11-25T02:56:29.147Z,16.08
2018-11-25T02:58:57.506Z,16.07
2018-11-25T03:01:26.186Z,16.09
2018-11-25T03:03:54.495Z,16.08
2018-11-25T03:06:23.835Z,16.09
2018-11-25T03:08:51.163Z,16.08
2018-11-25T03:11:20.019Z,16.11
2018-11-25T03:13:48.393Z,16.09
2018-11-25T03:16:16.595Z,16.08
2018-11-25T03:18:44.943Z,16.10
2018-11-25T03:21:13.183Z,16.12
2018-11-25T03:25:27.181Z,16.14
2018-11-25T03:27:55.783Z,16.15
2018-11-25T03:30:24.362Z,16.14
2018-11-25T03:32:53.178Z,16.15
2018-11-25T03:35:22.855Z,16.17
2018-11-25T03:38:12.671Z,16.16
2018-11-25T03:40:41.075Z,16.14
2018-11-25T03:43:09.918Z,16.14
2018-11-25T03:45:38.296Z,16.15
2018-11-25T03:48:06.729Z,16.17
2018-11-25T03:50:35.173Z,16.17
2018-11-25T03:53:04.437Z,16.17
2018-11-25T03:55:32.824Z,16.18
2018-11-25T03:58:01.663Z,16.17
2018-11-25T04:00:30.101Z,16.16
2018-11-25T04:02:58.516Z,16.18
2018-11-25T04:05:26.994Z,16.18
2018-11-25T04:07:55.371Z,16.18
2018-11-25T04:10:23.806Z,16.18
2018-11-25T04:12:52.436Z,16.20
2018-11-25T04:15:22.670Z,16.18
2018-11-25T04:18:44.183Z,16.17
2018-11-25T04:21:15.205Z,16.16
2018-11-25T04:23:44.132Z,16.17
2018-11-25T04:26:12.402Z,16.19
2018-11-25T04:30:38.325Z,16.18
2018-11-25T04:33:06.818Z,16.20
2018-11-25T04:35:35.308Z,16.17
2018-11-25T04:38:03.716Z,16.17
2018-11-25T04:40:32.165Z,16.19
2018-11-25T04:43:00.646Z,16.18
2018-11-25T04:45:29.073Z,16.16
2018-11-25T04:47:58.078Z,16.17
2018-11-25T04:50:26.527Z,16.17
2018-11-25T04:52:55.009Z,16.17
2018-11-25T04:55:23.384Z,16.14
2018-11-25T04:57:52.723Z,16.14
2018-11-25T05:00:21.322Z,16.16
2018-11-25T05:02:50.088Z,16.15
2018-11-25T05:05:18.706Z,16.14
2018-11-25T05:07:47.405Z,16.14
2018-11-25T05:10:16.434Z,16.13
2018-11-25T05:12:44.860Z,16.11
2018-11-25T05:15:17.734Z,16.10
2018-11-25T05:17:46.269Z,16.12
2018-11-25T05:20:15.028Z,16.09
2018-11-25T05:22:43.325Z,16.10
2018-11-25T05:25:16.444Z,16.11
2018-11-25T05:27:44.913Z,16.11
2018-11-25T05:30:13.830Z,16.11
2018-11-25T05:32:42.256Z,16.10
2018-11-25T05:35:11.392Z,16.08
2018-11-25T05:37:40.232Z,16.03
2018-11-25T05:40:16.405Z,16.02
2018-11-25T05:42:44.807Z,16.06
2018-11-25T05:45:14.468Z,16.05
2018-11-25T05:47:42.743Z,16.05
2018-11-25T05:50:13.466Z,16.08
2018-11-25T05:52:41.865Z,16.07
2018-11-25T05:55:11.383Z,16.08
2018-11-25T05:57:39.742Z,16.15
2018-11-25T06:00:29.109Z,16.17
2018-11-25T06:02:57.527Z,16.19
2018-11-25T06:05:25.982Z,16.22
2018-11-25T06:07:54.490Z,16.25
2018-11-25T06:10:23.045Z,16.29
2018-11-25T06:12:51.630Z,16.31
2018-11-25T06:15:39.563Z,16.33
2018-11-25T06:18:07.932Z,16.36
2018-11-25T06:20:36.337Z,16.39
2018-11-25T06:23:05.417Z,16.40
2018-11-25T06:25:33.700Z,16.43
2018-11-25T06:28:02.239Z,16.48
2018-11-25T06:30:30.778Z,16.49
2018-11-25T06:32:59.767Z,16.50
2018-11-25T06:35:28.661Z,16.52
2018-11-25T06:37:57.045Z,16.53
2018-11-25T06:40:27.539Z,16.56
2018-11-25T06:42:56.454Z,16.60
2018-11-25T06:45:26.153Z,16.66
2018-11-25T06:47:55.033Z,16.66
2018-11-25T06:50:24.356Z,16.71
2018-11-25T06:52:52.893Z,16.74
2018-11-25T06:55:21.829Z,16.74
2018-11-25T06:57:50.181Z,16.78
2018-11-25T07:00:19.991Z,16.81
2018-11-25T07:02:48.327Z,16.82
2018-11-25T07:05:16.735Z,16.79
2018-11-25T07:07:45.180Z,16.79
2018-11-25T07:10:15.238Z,16.85
2018-11-25T07:12:43.656Z,16.89
2018-11-25T07:15:12.856Z,16.90
2018-11-25T07:17:41.741Z,16.90
2018-11-25T07:20:11.512Z,16.92
2018-11-25T07:22:40.233Z,16.94
2018-11-25T07:25:10.706Z,16.97
2018-11-25T07:27:39.584Z,16.99
2018-11-25T07:30:11.188Z,17.00
2018-11-25T07:32:39.540Z,16.93
2018-11-25T07:35:08.799Z,16.92
2018-11-25T07:37:37.361Z,16.93
2018-11-25T07:40:08.067Z,16.99
2018-11-25T07:42:36.310Z,17.00
2018-11-25T07:45:04.582Z,16.99
2018-11-25T07:47:32.779Z,17.00
2018-11-25T07:50:01.482Z,17.00
2018-11-25T07:52:29.801Z,16.98
2018-11-25T07:54:58.037Z,17.02
2018-11-25T07:57:26.316Z,17.02
2018-11-25T07:59:55.459Z,17.01
2018-11-25T08:02:23.962Z,16.98
2018-11-25T08:07:29.564Z,16.98
2018-11-25T08:09:58.301Z,17.00
2018-11-25T08:12:27.060Z,17.03
2018-11-25T08:14:57.800Z,17.04
2018-11-25T08:18:50.614Z,17.08
2018-11-25T08:21:19.356Z,17.07
2018-11-25T08:23:48.257Z,17.06
2018-11-25T08:26:17.163Z,17.10
2018-11-25T08:28:46.197Z,17.07
2018-11-25T08:31:15.027Z,17.04
2018-11-25T08:35:02.775Z,17.03
2018-11-25T08:37:31.561Z,17.04
2018-11-25T08:40:00.092Z,17.02
2018-11-25T08:42:28.581Z,17.06
2018-11-25T08:44:57.130Z,17.10
2018-11-25T08:47:26.187Z,17.10
2018-11-25T08:49:58.774Z,17.09
2018-11-25T08:52:27.461Z,17.15
2018-11-25T08:54:56.452Z,17.15
2018-11-25T08:57:26.362Z,17.09
2018-11-25T08:59:56.085Z,17.07
2018-11-25T09:02:24.769Z,17.03
2018-11-25T09:04:53.178Z,17.11
2018-11-25T09:07:21.565Z,17.09
2018-11-25T09:09:50.144Z,17.14
2018-11-25T09:12:18.406Z,17.14
2018-11-25T09:14:46.793Z,17.16
2018-11-25T09:17:15.241Z,17.13
2018-11-25T09:19:43.556Z,17.14
2018-11-25T09:22:11.941Z,17.16
2018-11-25T09:24:40.625Z,17.18
2018-11-25T09:28:52.371Z,17.12
2018-11-25T09:31:20.815Z,17.09
2018-11-25T09:33:49.741Z,17.13
2018-11-25T09:36:17.952Z,17.16
2018-11-25T09:38:46.205Z,17.16
2018-11-25T09:41:14.472Z,17.18
2018-11-25T09:43:42.757Z,17.19
2018-11-25T09:46:10.952Z,17.21
2018-11-25T09:48:39.122Z,17.17
2018-11-25T09:52:07.960Z,17.25
2018-11-25T09:54:36.515Z,17.21
2018-11-25T09:57:05.037Z,17.16
2018-11-25T09:59:52.310Z,17.13
2018-11-25T10:02:21.107Z,17.16
2018-11-25T10:04:49.732Z,17.16
2018-11-25T10:07:18.945Z,17.17
2018-11-25T10:09:47.809Z,17.21
2018-11-25T10:13:22.783Z,17.23
2018-11-25T10:15:51.242Z,17.24
2018-11-25T10:18:20.552Z,17.27
2018-11-25T10:20:48.923Z,17.28
2018-11-25T10:25:59.018Z,17.21
2018-11-25T10:28:27.798Z,17.18
2018-11-25T10:30:56.492Z,17.19
2018-11-25T10:33:24.695Z,17.22
2018-11-25T10:35:53.105Z,17.25
2018-11-25T10:38:22.171Z,17.25
2018-11-25T10:40:50.556Z,17.26
2018-11-25T10:43:19.232Z,17.26
2018-11-25T10:45:47.639Z,17.27
2018-11-25T10:48:16.179Z,17.34
2018-11-25T10:50:50.956Z,17.33
2018-11-25T10:53:13.290Z,17.28
2018-11-25T10:55:41.802Z,17.23
2018-11-25T10:58:13.372Z,17.22
2018-11-25T11:00:47.844Z,17.29
2018-11-25T11:08:07.217Z,17.33
2018-11-25T11:10:36.105Z,17.36
2018-11-25T11:13:07.979Z,17.33
2018-11-25T11:15:36.437Z,17.36
2018-11-25T11:18:05.194Z,17.39
2018-11-25T11:20:33.775Z,17.37
2018-11-25T11:24:35.185Z,17.33
2018-11-25T11:27:19.275Z,17.33
2018-11-25T11:29:47.537Z,17.35
2018-11-25T11:32:15.814Z,17.35
2018-11-25T11:34:44.767Z,17.36
2018-11-25T11:37:12.947Z,17.40
2018-11-25T11:39:41.386Z,17.40
2018-11-25T11:42:09.985Z,17.41
2018-11-25T11:44:38.689Z,17.45
2018-11-25T11:47:07.012Z,17.45
2018-11-25T11:49:37.327Z,17.42
2018-11-25T11:52:05.913Z,17.38
2018-11-25T11:54:38.264Z,17.35
2018-11-25T11:57:07.987Z,17.41
2018-11-25T11:59:39.453Z,17.43
2018-11-25T12:02:07.770Z,17.42
2018-11-25T12:04:36.267Z,17.46
2018-11-25T12:07:06.453Z,17.47
2018-11-25T12:09:36.225Z,17.47
2018-11-25T12:12:07.906Z,17.47
2018-11-25T12:14:38.313Z,17.46
2018-11-25T12:17:07.417Z,17.48
2018-11-25T12:19:36.483Z,17.43
2018-11-25T12:22:07.165Z,17.42
2018-11-25T12:24:42.454Z,17.43
2018-11-25T12:27:11.426Z,17.46
2018-11-25T12:29:39.902Z,17.47
2018-11-25T12:32:09.374Z,17.42
2018-11-25T12:34:38.682Z,17.47
2018-11-25T12:37:23.699Z,17.49
2018-11-25T12:39:52.094Z,17.49
2018-11-25T12:42:20.385Z,17.50
2018-11-25T12:44:49.198Z,17.46
2018-11-25T12:47:17.730Z,17.42
2018-11-25T12:49:46.767Z,17.42
2018-11-25T12:52:15.701Z,17.40
2018-11-25T12:54:44.425Z,17.44
2018-11-25T12:57:13.346Z,17.45
2018-11-25T12:59:44.097Z,17.43
2018-11-25T13:02:13.049Z,17.47
2018-11-25T13:04:52.511Z,17.48
2018-11-25T13:07:23.192Z,17.51
2018-11-25T13:09:51.801Z,17.54
2018-11-25T13:12:23.302Z,17.55
2018-11-25T13:14:53.988Z,17.50
2018-11-25T13:17:23.211Z,17.47
2018-11-25T13:19:52.146Z,17.44
2018-11-25T13:22:20.487Z,17.48
2018-11-25T13:24:50.152Z,17.51
2018-11-25T13:27:19.080Z,17.50
2018-11-25T13:29:47.525Z,17.50
2018-11-25T13:32:15.916Z,17.53
2018-11-25T13:34:44.382Z,17.53
2018-11-25T13:37:12.858Z,17.54
2018-11-25T13:39:41.295Z,17.53
2018-11-25T13:42:16.028Z,17.50
2018-11-25T13:44:43.709Z,17.50
2018-11-25T13:47:13.143Z,17.46
2018-11-25T13:49:41.589Z,17.48
2018-11-25T13:52:10.198Z,17.48
2018-11-25T13:54:38.906Z,17.48
2018-11-25T13:57:08.090Z,17.50
2018-11-25T13:59:36.480Z,17.51
2018-11-25T14:02:04.967Z,17.56
2018-11-25T14:04:33.276Z,17.51
2018-11-25T14:07:03.187Z,17.54
2018-11-25T14:09:59.430Z,17.56
2018-11-25T14:12:27.717Z,17.47
2018-11-25T14:14:56.293Z,17.44
2018-11-25T14:18:25.708Z,17.46
2018-11-25T14:20:55.376Z,17.51
2018-11-25T14:23:25.979Z,17.51
2018-11-25T14:25:57.695Z,17.50
2018-11-25T14:28:27.097Z,17.51
2018-11-25T14:30:55.944Z,17.48
2018-11-25T14:33:24.552Z,17.50
2018-11-25T14:35:53.791Z,17.52
2018-11-25T14:38:22.361Z,17.54
2018-11-25T14:40:51.581Z,17.49
2018-11-25T14:43:20.143Z,17.46
2018-11-25T14:45:59.509Z,17.46
2018-11-25T14:50:31.227Z,17.46
2018-11-25T14:53:00.317Z,17.45
2018-11-25T14:55:28.801Z,17.48
2018-11-25T14:57:57.310Z,17.50
2018-11-25T15:00:25.794Z,17.45
2018-11-25T15:02:56.093Z,17.45
2018-11-25T15:05:26.417Z,17.44
2018-11-25T15:07:56.381Z,17.46
2018-11-25T15:10:25.864Z,17.47
2018-11-25T15:12:55.340Z,17.46
2018-11-25T15:15:23.839Z,17.49
2018-11-25T15:17:52.438Z,17.53
2018-11-25T15:20:21.055Z,17.51
2018-11-25T15:22:52.040Z,17.51
2018-11-25T15:25:23.200Z,17.52
2018-11-25T15:27:51.693Z,17.57
2018-11-25T15:30:20.188Z,17.53
2018-11-25T15:32:49.016Z,17.48
2018-11-25T15:35:18.340Z,17.49
2018-11-25T15:37:46.657Z,17.52
2018-11-25T15:40:19.060Z,17.52
2018-11-25T15:42:47.443Z,17.51
2018-11-25T15:45:15.701Z,17.51
2018-11-25T15:47:45.205Z,17.53
2018-11-25T15:50:14.291Z,17.53
2018-11-25T15:52:42.547Z,17.51
2018-11-25T15:55:12.519Z,17.51
2018-11-25T15:57:41.187Z,17.50
2018-11-25T16:00:16.284Z,17.50
2018-11-25T16:02:44.476Z,17.50
2018-11-25T16:05:13.453Z,17.49
2018-11-25T16:07:41.799Z,17.48
2018-11-25T16:10:11.036Z,17.45
2018-11-25T16:12:39.983Z,17.44
2018-11-25T16:15:09.830Z,17.44
2018-11-25T16:19:49.008Z,17.44
2018-11-25T16:22:17.490Z,17.42
2018-11-25T16:24:45.718Z,17.43
2018-11-25T16:27:14.200Z,17.40
2018-11-25T16:29:42.411Z,17.41
2018-11-25T16:32:11.024Z,17.39
2018-11-25T16:34:39.239Z,17.38
2018-11-25T16:37:07.507Z,17.34
2018-11-25T16:39:35.749Z,17.31
2018-11-25T16:42:04.746Z,17.30
2018-11-25T16:45:10.284Z,17.35
2018-11-25T16:47:38.693Z,17.33
2018-11-25T16:50:09.051Z,17.33
2018-11-25T16:52:37.622Z,17.34
2018-11-25T16:55:07.323Z,17.33
2018-11-25T16:59:11.502Z,17.24
2018-11-25T17:01:39.748Z,17.24
2018-11-25T17:04:07.969Z,17.27
2018-11-25T17:06:37.744Z,17.27
2018-11-25T17:09:08.871Z,17.25
2018-11-25T17:11:38.279Z,17.30
2018-11-25T17:14:06.791Z,17.34
2018-11-25T17:16:35.613Z,17.30
2018-11-25T17:19:03.887Z,17.28
2018-11-25T17:21:32.121Z,17.30
2018-11-25T17:24:01.000Z,17.30
2018-11-25T17:26:31.696Z,17.28
2018-11-25T17:29:00.695Z,17.28
2018-11-25T17:31:29.083Z,17.32
2018-11-25T17:33:57.268Z,17.34
2018-11-25T17:36:25.612Z,17.34
2018-11-25T17:38:54.644Z,17.33
2018-11-25T17:41:24.140Z,17.37
2018-11-25T17:43:52.476Z,17.39
2018-11-25T17:46:20.861Z,17.36
2018-11-25T17:48:49.415Z,17.32
2018-11-25T17:51:18.013Z,17.32
2018-11-25T17:54:42.427Z,17.36
2018-11-25T17:57:11.353Z,17.36
2018-11-25T17:59:39.720Z,17.41
2018-11-25T18:02:08.792Z,17.41
2018-11-25T18:04:37.733Z,17.41
2018-11-25T18:07:07.038Z,17.41
2018-11-25T18:09:35.789Z,17.42
2018-11-25T18:12:04.171Z,17.41
2018-11-25T18:16:53.488Z,17.36
2018-11-25T18:20:35.578Z,17.38
2018-11-25T18:23:04.185Z,17.39
2018-11-25T18:25:33.292Z,17.38
2018-11-25T18:28:01.661Z,17.41
2018-11-25T18:30:29.866Z,17.40
2018-11-25T18:32:58.748Z,17.41
2018-11-25T18:35:27.281Z,17.42
2018-11-25T18:37:55.544Z,17.42
2018-11-25T18:40:23.952Z,17.40
2018-11-25T18:42:52.784Z,17.38
2018-11-25T18:45:21.049Z,17.35
2018-11-25T18:47:55.078Z,17.32
2018-11-25T18:50:24.807Z,17.37
2018-11-25T18:52:54.909Z,17.35
2018-11-25T18:55:22.537Z,17.36
2018-11-25T18:59:47.188Z,17.39
2018-11-25T19:02:17.264Z,17.37
2018-11-25T19:04:45.553Z,17.38
2018-11-25T19:07:13.786Z,17.40
2018-11-25T19:09:42.401Z,17.40
2018-11-25T19:12:10.614Z,17.38
2018-11-25T19:15:01.679Z,17.33
2018-11-25T19:17:30.658Z,17.30
2018-11-25T19:19:58.906Z,17.36
2018-11-25T19:22:27.333Z,17.34
2018-11-25T19:24:55.815Z,17.35
2018-11-25T19:27:24.443Z,17.35
2018-11-25T19:29:52.685Z,17.36
2018-11-25T19:32:20.977Z,17.36
2018-11-25T19:34:49.819Z,17.32
2018-11-25T19:37:19.110Z,17.30
2018-11-25T19:41:14.531Z,17.34
2018-11-25T19:43:42.759Z,17.34
2018-11-25T19:46:11.388Z,17.31
2018-11-25T19:48:39.864Z,17.36
2018-11-25T19:51:16.766Z,17.36
2018-11-25T19:53:37.124Z,17.34
2018-11-25T19:56:05.462Z,17.36
2018-11-25T19:58:33.732Z,17.36
2018-11-25T20:01:02.064Z,17.31
2018-11-25T20:03:30.545Z,17.28
2018-11-25T20:05:59.428Z,17.24
2018-11-25T20:10:01.768Z,17.31
2018-11-25T20:12:35.523Z,17.29
2018-11-25T20:15:04.063Z,17.32
2018-11-25T20:17:33.079Z,17.36
2018-11-25T20:20:01.691Z,17.30
2018-11-25T20:22:30.544Z,17.25
2018-11-25T20:24:59.024Z,17.25
2018-11-25T20:27:32.744Z,17.26
2018-11-25T20:30:01.155Z,17.30
2018-11-25T20:32:35.224Z,17.28
2018-11-25T20:35:03.816Z,17.29
2018-11-25T20:37:33.084Z,17.31
2018-11-25T20:42:41.741Z,17.34
2018-11-25T20:45:16.181Z,17.33
2018-11-25T20:47:44.676Z,17.36
2018-11-25T20:50:13.233Z,17.30
2018-11-25T20:52:46.689Z,17.34
2018-11-25T20:55:15.143Z,17.33
2018-11-25T20:57:44.301Z,17.40
2018-11-25T21:00:15.151Z,17.38
2018-11-25T21:02:43.398Z,17.36
2018-11-25T21:05:12.132Z,17.39
2018-11-25T21:07:40.364Z,17.41
2018-11-25T21:10:12.351Z,17.44
2018-11-25T21:12:40.760Z,17.40
2018-11-25T21:15:09.557Z,17.42
2018-11-25T21:17:37.732Z,17.42
2018-11-25T21:20:11.657Z,17.42
2018-11-25T21:22:40.182Z,17.41
2018-11-25T21:25:09.293Z,17.40
2018-11-25T21:27:37.524Z,17.41
2018-11-25T21:30:08.286Z,17.40
2018-11-25T21:32:36.978Z,17.38
2018-11-25T21:36:35.209Z,17.36
2018-11-25T21:39:05.060Z,17.36
2018-11-25T21:41:34.018Z,17.35
2018-11-25T21:44:02.525Z,17.34
2018-11-25T21:46:31.344Z,17.32
2018-11-25T21:48:59.921Z,17.30
2018-11-25T21:51:28.900Z,17.28
2018-11-25T21:54:43.700Z,17.25
2018-11-25T21:57:13.139Z,17.24
2018-11-25T21:59:41.602Z,17.24
2018-11-25T22:02:10.198Z,17.21
2018-11-25T22:04:38.634Z,17.18
2018-11-25T22:07:07.643Z,17.15
2018-11-25T22:09:36.156Z,17.17
2018-11-25T22:12:05.168Z,17.14
2018-11-25T22:14:33.596Z,17.13
2018-11-25T22:17:02.003Z,17.12
2018-11-25T22:20:07.806Z,17.08
2018-11-25T22:22:36.375Z,17.06
2018-11-25T22:25:05.844Z,17.04
2018-11-25T22:27:34.411Z,17.04
2018-11-25T22:30:03.025Z,17.03
2018-11-25T22:32:31.802Z,17.01
2018-11-25T22:35:00.448Z,16.97
2018-11-25T22:37:29.763Z,16.97
2018-11-25T22:39:58.321Z,16.95
2018-11-25T22:42:26.740Z,16.92
2018-11-25T22:44:55.456Z,16.89
2018-11-25T22:47:23.902Z,16.88
2018-11-25T22:49:52.458Z,16.85
2018-11-25T22:52:20.937Z,16.84
2018-11-25T22:54:49.599Z,16.82
2018-11-25T22:57:18.537Z,16.79
2018-11-25T22:59:47.000Z,16.77
2018-11-25T23:02:15.382Z,16.77
2018-11-25T23:04:49.899Z,16.75
2018-11-25T23:07:18.404Z,16.73
2018-11-25T23:09:46.895Z,16.71
2018-11-25T23:12:15.159Z,16.69
2018-11-25T23:14:44.120Z,16.68
2018-11-25T23:17:12.485Z,16.65
2018-11-25T23:21:14.479Z,16.64
2018-11-25T23:23:43.109Z,16.62
2018-11-25T23:26:11.308Z,16.60
2018-11-25T23:28:39.721Z,16.58
2018-11-25T23:31:08.197Z,16.57
2018-11-25T23:33:36.600Z,16.55
2018-11-25T23:36:05.249Z,16.55
2018-11-25T23:38:34.302Z,16.51
2018-11-25T23:41:02.820Z,16.49
2018-11-25T23:43:31.329Z,16.48
2018-11-25T23:46:00.114Z,16.46
2018-11-25T23:48:28.564Z,16.45
2018-11-25T23:54:21.456Z,16.42
